Vjaz'Ma, Russia
Current Conditions -  °F | °C
As of 9:00 PM on Friday 24 Oct 2014 (Local Time) from UUBW Reporting Station
Clear Clear  
Wind Chill: 15°   Ceiling: Unl
Heat Index: 21°   Visibility: 6mi
Dew Point: 10°   Wind: 4mph
Humidity: 63%   Direction: 330°NNW
Pressure: 30.59"   Gusts: NA
Location:  55.17°N, 34.4°E
Report Text: UUBW 241800Z 33002MPS CAVOK M06/M12 Q1036 NOSIG
Loading
Personal Weather Stations






























Interactive Weather Map
Tropical Storm Tracking
New forecast layout! Learn more

10-Day Weather Forecast

Advertisements
Track Severe Weather on mobile